Time;durP1;ratioP1;P1;durP2;ratioP2;P2;SDS_P1;SDS_P2;PMS_P1;PMS_P2;Temp;Humidity;BMP_temperature;BMP_pressure;BME280_temperature;BME280_humidity;BME280_pressure;Samples;Min_cycle;Max_cycle;Signal;HPM_P1;HPM_P2
2022/09/05 00:00:18;;;;;;;1.40;1.30;;;;;;;17.70;62.47;99336.94;5121001;27;42363;-79
2022/09/05 00:03:13;;;;;;;1.60;1.50;;;;;;;17.70;62.98;99342.31;5137774;27;40680;-79
2022/09/05 00:05:53;;;;;;;3.13;1.60;;;;;;;17.62;63.10;99330.50;5137679;27;41902;-79
2022/09/05 00:08:28;;;;;;;1.77;1.67;;;;;;;17.56;63.18;99332.72;5135561;27;42722;-79
2022/09/05 00:11:08;;;;;;;1.47;1.33;;;;;;;17.64;63.22;99344.66;5153213;27;43373;-79
2022/09/05 00:13:40;;;;;;;1.50;1.40;;;;;;;17.61;63.05;99348.41;5153849;27;40231;-79
2022/09/05 00:16:39;;;;;;;1.50;1.40;;;;;;;17.57;63.29;99344.28;5137779;27;41722;-79
2022/09/05 00:19:16;;;;;;;1.40;1.30;;;;;;;17.53;63.30;99351.75;5120519;27;42697;-79
2022/09/05 00:21:58;;;;;;;1.40;1.30;;;;;;;17.39;63.47;99330.59;5120606;27;42394;-79
2022/09/05 00:24:40;;;;;;;1.70;1.60;;;;;;;17.14;63.23;99298.81;5137547;27;38665;-79
2022/09/05 00:27:17;;;;;;;1.40;1.30;;;;;;;17.43;63.73;99350.78;5120172;27;43272;-79
2022/09/05 00:30:09;;;;;;;1.40;1.30;;;;;;;17.39;63.71;99335.09;5137802;27;43152;-79
2022/09/05 00:33:14;;;;;;;1.20;1.10;;;;;;;17.33;63.32;99336.44;5156299;27;42910;-79
2022/09/05 00:36:09;;;;;;;1.40;1.30;;;;;;;17.29;63.83;99334.16;5153899;27;41096;-79
2022/09/05 00:38:42;;;;;;;1.20;1.10;;;;;;;17.22;63.71;99331.13;5137473;27;41850;-79
2022/09/05 00:41:13;;;;;;;1.60;1.47;;;;;;;17.19;63.53;99342.09;5137209;27;43398;-79
2022/09/05 00:43:44;;;;;;;1.50;1.40;;;;;;;17.16;63.60;99347.72;5119676;27;42363;-79
2022/09/05 00:46:16;;;;;;;1.13;1.07;;;;;;;17.13;63.43;99342.59;5137287;27;39003;-78
2022/09/05 00:48:51;;;;;;;1.20;1.10;;;;;;;17.12;63.81;99354.28;5134841;27;42741;-79
2022/09/05 00:51:32;;;;;;;1.50;1.40;;;;;;;17.07;63.71;99356.47;5120367;27;42913;-79
2022/09/05 00:54:18;;;;;;;2.30;1.20;;;;;;;17.07;64.08;99357.31;5135821;27;42246;-79
2022/09/05 00:57:06;;;;;;;1.13;1.03;;;;;;;17.07;63.95;99356.47;5120028;27;39048;-79
2022/09/05 01:00:02;;;;;;;1.20;1.10;;;;;;;17.03;64.21;99363.91;5119500;27;40792;-79
2022/09/05 01:02:43;;;;;;;1.30;1.20;;;;;;;17.03;64.59;99360.38;5119619;27;41878;-79
2022/09/05 01:05:26;;;;;;;1.53;1.43;;;;;;;17.02;64.91;99358.69;5119897;27;42142;-79
2022/09/05 01:08:13;;;;;;;1.30;1.20;;;;;;;17.01;65.23;99362.34;5134266;27;39987;-79
2022/09/05 01:10:51;;;;;;;3.93;1.27;;;;;;;16.92;65.03;99347.03;5133858;27;42697;-79
2022/09/05 01:13:30;;;;;;;1.40;1.30;;;;;;;16.98;64.92;99367.94;5152757;27;43735;-78
2022/09/05 01:16:07;;;;;;;1.43;1.33;;;;;;;16.96;64.78;99354.66;5119621;27;42632;-79
2022/09/05 01:18:47;;;;;;;1.30;1.20;;;;;;;16.95;64.98;99363.66;5118884;27;40075;-79
2022/09/05 01:21:50;;;;;;;1.30;1.20;;;;;;;16.93;65.08;99367.47;5152180;27;41889;-79
2022/09/05 01:24:41;;;;;;;1.20;1.10;;;;;;;16.88;64.89;99368.69;5051311;27;42041;-79
2022/09/05 01:27:46;;;;;;;1.30;1.20;;;;;;;16.85;65.01;99363.56;5134362;27;41100;-79
2022/09/05 01:30:19;;;;;;;1.77;1.40;;;;;;;16.72;64.78;99349.47;5119375;27;40210;-79
2022/09/05 01:32:55;;;;;;;1.37;1.10;;;;;;;16.79;64.78;99364.06;5118862;27;44177;-79
2022/09/05 01:35:59;;;;;;;2.17;1.30;;;;;;;16.76;65.04;99369.66;5136619;27;41909;-79
2022/09/05 01:38:38;;;;;;;1.57;1.20;;;;;;;16.72;65.20;99368.19;5110486;27;41141;-79
2022/09/05 01:41:20;;;;;;;1.77;0.90;;;;;;;16.70;65.38;99363.94;5151768;27;40440;-79
2022/09/05 01:44:27;;;;;;;1.57;1.10;;;;;;;16.58;65.32;99349.69;5134723;27;42542;-79
2022/09/05 01:47:15;;;;;;;2.93;1.10;;;;;;;16.59;65.19;99351.38;5136350;27;42676;-79
2022/09/05 01:49:56;;;;;;;2.30;1.47;;;;;;;16.59;65.44;99351.38;5154231;27;42161;-79
2022/09/05 01:52:43;;;;;;;1.50;1.40;;;;;;;16.58;65.70;99343.47;5119064;27;40016;-79
2022/09/05 01:55:25;;;;;;;1.53;1.30;;;;;;;16.55;66.08;99344.59;5135761;27;40739;-79
2022/09/05 01:58:02;;;;;;;2.30;1.43;;;;;;;16.54;66.17;99342.88;5154156;27;42961;-79
2022/09/05 02:00:39;;;;;;;1.30;1.20;;;;;;;16.52;66.23;99344.81;5135561;27;41147;-79
2022/09/05 02:03:19;;;;;;;1.87;1.37;;;;;;;16.49;66.11;99339.72;5136206;27;40182;-79
2022/09/05 02:06:26;;;;;;;1.30;1.20;;;;;;;16.50;66.04;99341.41;5135933;27;42060;-79
2022/09/05 02:09:10;;;;;;;1.50;1.40;;;;;;;16.46;66.52;99346.16;5134120;27;43834;-79
2022/09/05 02:11:44;;;;;;;1.53;1.43;;;;;;;16.42;66.19;99341.19;5119112;27;41092;-79
2022/09/05 02:14:25;;;;;;;1.37;1.27;;;;;;;16.39;66.04;99354.78;5153001;27;40984;-79
2022/09/05 02:16:56;;;;;;;1.80;1.43;;;;;;;16.34;65.88;99351.59;5151205;27;42441;-79
2022/09/05 02:19:29;;;;;;;2.27;1.40;;;;;;;16.31;66.01;99354.53;5153394;27;42685;-79
2022/09/05 02:22:07;;;;;;;1.30;1.20;;;;;;;16.25;66.29;99342.50;5118588;27;41219;-78
2022/09/05 02:24:38;;;;;;;1.77;1.50;;;;;;;16.25;66.26;99352.34;5136062;27;38941;-79
2022/09/05 02:27:19;;;;;;;1.27;1.17;;;;;;;16.18;66.35;99346.63;5135964;27;42463;-78
2022/09/05 02:29:58;;;;;;;1.20;1.10;;;;;;;16.19;66.24;99342.13;5153795;27;42759;-79
2022/09/05 02:32:32;;;;;;;1.20;1.10;;;;;;;16.04;66.64;99326.31;5132902;27;43170;-79
2022/09/05 02:35:07;;;;;;;1.30;1.20;;;;;;;16.04;66.48;99325.47;5135477;27;40911;-79
2022/09/05 02:37:42;;;;;;;1.30;1.20;;;;;;;16.12;66.86;99347.09;5151173;27;42778;-79
2022/09/05 02:40:17;;;;;;;1.33;1.20;;;;;;;16.09;67.01;99342.81;5132174;27;43845;-79
2022/09/05 02:42:54;;;;;;;1.40;1.30;;;;;;;15.74;66.70;99286.78;5118040;27;41408;-79
2022/09/05 02:45:37;;;;;;;2.20;1.40;;;;;;;16.05;66.69;99335.19;5135798;27;39342;-79
2022/09/05 02:48:17;;;;;;;1.20;1.00;;;;;;;16.02;67.04;99330.91;5151172;27;42066;-79
2022/09/05 02:50:51;;;;;;;0.93;0.90;;;;;;;16.01;66.89;99325.69;5132597;27;44120;-79
2022/09/05 02:53:21;;;;;;;1.40;1.30;;;;;;;15.98;67.09;99324.09;5132996;27;42258;-79
2022/09/05 02:56:09;;;;;;;1.40;1.30;;;;;;;15.96;67.23;99315.34;5135372;27;39987;-79
2022/09/05 02:58:49;;;;;;;1.53;1.27;;;;;;;15.92;67.16;99316.59;5135177;27;42729;-79
2022/09/05 03:01:26;;;;;;;1.50;1.40;;;;;;;15.93;67.52;99315.63;5117844;27;44574;-79
2022/09/05 03:04:12;;;;;;;1.60;1.50;;;;;;;15.90;67.49;99315.84;5117798;27;42191;-79
2022/09/05 03:06:55;;;;;;;1.60;1.50;;;;;;;15.90;67.52;99315.00;5132184;27;39954;-79
2022/09/05 03:09:36;;;;;;;1.47;1.30;;;;;;;15.77;67.49;99299.06;5133498;27;41738;-80
2022/09/05 03:12:37;;;;;;;1.57;1.40;;;;;;;15.84;67.91;99310.09;5120100;27;43675;-79
2022/09/05 03:15:33;;;;;;;1.50;1.40;;;;;;;15.80;67.96;99312.19;5135954;27;41137;-79
2022/09/05 03:18:25;;;;;;;1.70;1.60;;;;;;;15.75;68.04;99317.00;5125682;27;38699;-79
2022/09/05 03:21:24;;;;;;;1.43;1.33;;;;;;;15.70;68.10;99312.00;5139011;27;41651;-79
2022/09/05 03:24:13;;;;;;;1.43;1.20;;;;;;;15.67;68.13;99311.41;5120876;27;41965;-79
2022/09/05 03:27:17;;;;;;;1.57;1.47;;;;;;;15.63;68.16;99318.78;5135484;27;42238;-79
2022/09/05 03:30:07;;;;;;;1.80;1.70;;;;;;;15.51;68.28;99313.50;5138611;27;40916;-79
2022/09/05 03:33:21;;;;;;;1.77;1.40;;;;;;;15.57;68.50;99310.41;5121407;27;42087;-79
2022/09/05 03:36:27;;;;;;;3.57;1.60;;;;;;;15.55;69.18;99302.53;5135349;27;43632;-79
2022/09/05 03:39:32;;;;;;;1.50;1.40;;;;;;;15.55;69.21;99312.34;5121172;27;40931;-78
2022/09/05 03:42:22;;;;;;;1.80;1.70;;;;;;;15.54;68.75;99305.25;5156902;27;40101;-79
2022/09/05 03:45:11;;;;;;;1.50;1.40;;;;;;;15.52;68.78;99309.88;5120795;27;40600;-79
2022/09/05 03:48:06;;;;;;;1.40;1.30;;;;;;;15.51;68.96;99303.69;5153625;27;42891;-79
2022/09/05 03:50:36;;;;;;;1.93;1.50;;;;;;;15.51;68.94;99306.34;5135285;27;42236;-79
2022/09/05 03:53:31;;;;;;;1.50;1.40;;;;;;;15.50;69.17;99296.63;5153997;27;40144;-79
2022/09/05 03:56:15;;;;;;;2.30;1.57;;;;;;;15.50;68.73;99309.13;5121076;27;40367;-79
2022/09/05 03:59:05;;;;;;;2.40;1.50;;;;;;;15.50;68.92;99314.47;5136450;27;42824;-79
2022/09/05 04:01:37;;;;;;;1.70;1.60;;;;;;;15.40;68.71;99299.16;5135102;27;42529;-79
2022/09/05 04:04:11;;;;;;;1.70;1.60;;;;;;;15.45;68.68;99326.31;5136710;27;40983;-79
2022/09/05 04:06:44;;;;;;;1.40;1.30;;;;;;;15.46;68.94;99327.19;5153666;27;41582;-79
2022/09/05 04:09:19;;;;;;;2.83;1.70;;;;;;;15.39;69.10;99316.13;5137829;27;41915;-79
2022/09/05 04:11:49;;;;;;;1.73;1.63;;;;;;;15.33;69.36;99316.56;5137999;27;40878;-79
2022/09/05 04:14:25;;;;;;;2.23;2.10;;;;;;;15.31;69.61;99294.50;5137992;27;38622;-79
2022/09/05 04:16:57;;;;;;;2.50;2.30;;;;;;;15.40;71.78;99300.97;5153224;27;41777;-79
2022/09/05 04:19:32;;;;;;;2.40;2.20;;;;;;;15.49;72.17;99312.75;5120275;27;42256;-79
2022/09/05 04:22:15;;;;;;;2.03;1.93;;;;;;;15.49;71.36;99318.09;5134903;27;42302;-79
2022/09/05 04:24:54;;;;;;;2.57;2.37;;;;;;;15.49;70.99;99323.44;5119679;27;39023;-79
2022/09/05 04:27:35;;;;;;;2.57;2.20;;;;;;;15.35;71.35;99297.78;5137848;27;40954;-78
2022/09/05 04:30:18;;;;;;;2.40;2.20;;;;;;;15.46;70.75;99338.72;5120384;27;41778;-79
2022/09/05 04:32:54;;;;;;;3.37;2.30;;;;;;;15.35;70.93;99321.78;5134670;27;42136;-79
2022/09/05 04:35:30;;;;;;;2.07;1.83;;;;;;;15.44;70.83;99340.66;5153013;27;40094;-79
2022/09/05 04:38:08;;;;;;;1.70;1.60;;;;;;;15.34;70.86;99323.63;5137234;27;42899;-79
2022/09/05 04:40:43;;;;;;;2.43;1.70;;;;;;;15.45;70.97;99342.34;5120065;27;43961;-78
2022/09/05 04:43:19;;;;;;;1.83;1.73;;;;;;;15.42;70.87;99342.59;5120260;27;41336;-79
2022/09/05 04:45:53;;;;;;;1.50;1.40;;;;;;;15.46;70.80;99353.88;5137462;27;39324;-79
2022/09/05 04:48:27;;;;;;;2.57;2.17;;;;;;;15.44;71.01;99362.03;5153346;27;41731;-79
2022/09/05 04:51:07;;;;;;;2.57;1.80;;;;;;;15.46;71.14;99360.06;5137275;27;42586;-79
2022/09/05 04:53:56;;;;;;;2.10;1.83;;;;;;;15.47;71.04;99360.91;5120260;27;41030;-79
2022/09/05 04:56:32;;;;;;;1.83;1.47;;;;;;;15.50;70.99;99371.38;5137574;27;39979;-79
2022/09/05 04:59:05;;;;;;;2.10;1.90;;;;;;;15.53;70.91;99380.97;5119913;27;40949;-79
2022/09/05 05:01:38;;;;;;;2.03;1.80;;;;;;;15.51;70.58;99373.09;5134319;27;42829;-79
2022/09/05 05:04:08;;;;;;;2.37;2.00;;;;;;;15.54;70.46;99378.19;5136892;27;41626;-79
2022/09/05 05:06:41;;;;;;;2.40;2.00;;;;;;;15.57;70.69;99379.81;5137077;27;40019;-79
2022/09/05 05:09:17;;;;;;;1.90;1.80;;;;;;;15.59;70.39;99381.41;5136116;27;41470;-79
2022/09/05 05:11:53;;;;;;;2.20;1.87;;;;;;;15.62;70.53;99391.00;5137121;27;41747;-79
2022/09/05 05:14:26;;;;;;;1.77;1.60;;;;;;;15.63;70.09;99393.56;5136478;27;42279;-79
2022/09/05 05:17:00;;;;;;;1.90;1.53;;;;;;;15.65;70.06;99390.78;5134107;27;39783;-78
2022/09/05 05:19:31;;;;;;;2.00;1.90;;;;;;;15.66;70.21;99392.47;5119337;27;41774;-79
2022/09/05 05:22:04;;;;;;;1.90;1.80;;;;;;;15.64;70.07;99384.59;5133862;27;42714;-79
2022/09/05 05:24:35;;;;;;;2.30;2.10;;;;;;;15.70;70.14;99399.31;5118942;27;41325;-79
2022/09/05 05:27:11;;;;;;;2.77;1.60;;;;;;;15.73;69.91;99402.56;5136903;27;39297;-79
2022/09/05 05:29:48;;;;;;;2.23;1.60;;;;;;;15.75;69.68;99402.47;5119542;27;40673;-79
2022/09/05 05:32:21;;;;;;;1.70;1.60;;;;;;;15.79;69.66;99409.28;5152061;27;42791;-79
2022/09/05 05:34:54;;;;;;;1.60;1.50;;;;;;;15.79;69.29;99396.78;5135022;27;42041;-78
2022/09/05 05:37:30;;;;;;;2.27;1.80;;;;;;;15.88;69.73;99405.91;5119569;27;39978;-79
2022/09/05 05:40:07;;;;;;;1.53;1.43;;;;;;;15.99;69.37;99399.75;5118779;27;41662;-79
2022/09/05 05:42:39;;;;;;;1.73;1.63;;;;;;;16.08;69.54;99391.88;5151798;27;42938;-79
2022/09/05 05:45:17;;;;;;;2.10;1.77;;;;;;;16.15;69.20;99390.47;5136710;27;41182;-79
2022/09/05 05:47:49;;;;;;;3.83;1.83;;;;;;;16.34;69.61;99403.25;5151569;27;40527;-79
2022/09/05 05:50:32;;;;;;;2.87;2.30;;;;;;;16.46;70.48;99406.78;5136178;27;42469;-79
2022/09/05 05:53:28;;;;;;;2.13;1.90;;;;;;;16.59;69.80;99410.22;5152103;27;43869;-79
2022/09/05 05:56:19;;;;;;;2.27;1.80;;;;;;;16.66;69.87;99406.13;5151384;27;42017;-79
2022/09/05 05:59:02;;;;;;;2.30;2.10;;;;;;;16.79;70.03;99396.16;5136030;27;39833;-79
2022/09/05 06:02:11;;;;;;;3.17;2.30;;;;;;;17.03;71.17;99409.41;5133241;27;42382;-79
2022/09/05 06:05:24;;;;;;;2.17;1.97;;;;;;;17.22;70.36;99414.13;5135616;27;43037;-79
2022/09/05 06:08:03;;;;;;;2.50;1.80;;;;;;;17.50;69.48;99413.56;5070502;28;42280;-79
2022/09/05 06:11:15;;;;;;;2.37;2.20;;;;;;;17.87;68.55;99421.28;5073325;28;38941;-79
2022/09/05 06:14:37;;;;;;;2.50;2.30;;;;;;;18.07;67.86;99427.63;5142931;27;41498;-79
2022/09/05 06:17:38;;;;;;;2.40;2.20;;;;;;;18.14;67.78;99421.66;5132531;27;42728;-79
2022/09/05 06:20:40;;;;;;;1.73;1.63;;;;;;;18.18;67.55;99425.75;5099680;27;42291;-79
2022/09/05 06:23:49;;;;;;;2.40;2.20;;;;;;;18.30;67.78;99413.97;5102188;27;40855;-82
2022/09/05 06:26:48;;;;;;;3.63;3.03;;;;;;;18.40;67.80;99419.44;5112893;27;41757;-80
2022/09/05 06:29:38;;;;;;;2.90;2.70;;;;;;;18.53;67.71;99424.59;5152688;27;42648;-85
2022/09/05 06:32:27;;;;;;;2.53;2.33;;;;;;;18.76;67.04;99436.88;5112090;27;42183;-86
2022/09/05 06:35:24;;;;;;;3.67;2.90;;;;;;;18.93;66.88;99427.34;5135417;27;40014;-84
2022/09/05 06:38:10;;;;;;;2.97;2.40;;;;;;;18.99;66.65;99424.97;5135657;27;41158;-87
2022/09/05 06:40:45;;;;;;;2.93;2.60;;;;;;;19.21;66.35;99417.72;5118429;27;44196;-89
2022/09/05 06:43:30;;;;;;;2.47;2.27;;;;;;;19.43;65.88;99420.16;5133617;27;42872;-90
2022/09/05 06:46:10;;;;;;;2.60;2.40;;;;;;;19.67;65.90;99436.78;5135049;27;38908;-85
2022/09/05 06:48:46;;;;;;;2.53;2.33;;;;;;;19.88;65.17;99435.84;5135268;27;41811;-81
2022/09/05 06:51:45;;;;;;;3.30;2.90;;;;;;;20.09;64.88;99433.84;5131693;27;42706;-82
2022/09/05 06:54:47;;;;;;;3.70;2.60;;;;;;;20.31;64.12;99438.91;5133762;27;44723;-82
2022/09/05 06:57:44;;;;;;;2.70;2.50;;;;;;;20.50;63.70;99431.84;5135487;27;40133;-87
2022/09/05 07:00:19;;;;;;;3.17;2.87;;;;;;;20.36;63.50;99374.81;5150107;27;41997;-83
2022/09/05 07:03:00;;;;;;;3.20;2.90;;;;;;;20.90;63.20;99432.44;5132114;27;42654;-78
2022/09/05 07:05:37;;;;;;;3.93;3.07;;;;;;;21.12;62.59;99433.94;5149431;27;42255;-79
2022/09/05 07:08:19;;;;;;;2.50;2.30;;;;;;;21.41;61.50;99433.78;5132226;27;40810;-82
2022/09/05 07:10:58;;;;;;;3.50;3.03;;;;;;;21.72;60.77;99437.88;5117104;27;40826;-80
2022/09/05 07:13:33;;;;;;;2.70;2.50;;;;;;;21.98;60.61;99442.50;5117410;27;41061;-80
2022/09/05 07:16:13;;;;;;;3.03;2.50;;;;;;;22.21;60.29;99441.91;5134282;27;44409;-83
2022/09/05 07:18:50;;;;;;;3.33;2.87;;;;;;;22.39;59.99;99425.69;5118357;27;38820;-81
2022/09/05 07:21:22;;;;;;;2.93;2.73;;;;;;;22.71;59.34;99440.44;5117283;27;42172;-79
2022/09/05 07:23:59;;;;;;;3.10;2.80;;;;;;;22.98;58.12;99444.84;5134496;27;42662;-79
2022/09/05 07:26:27;;;;;;;3.20;2.90;;;;;;;23.25;57.68;99450.88;5131394;27;42913;-84
2022/09/05 07:29:02;;;;;;;3.73;3.43;;;;;;;23.46;56.57;99447.78;5117265;27;39797;-80
2022/09/05 07:31:34;;;;;;;3.40;2.90;;;;;;;23.72;56.37;99455.84;5134060;27;41865;-81
2022/09/05 07:34:18;;;;;;;2.73;2.53;;;;;;;23.83;55.72;99455.53;5134437;27;42699;-81
2022/09/05 07:36:48;;;;;;;2.97;2.70;;;;;;;23.98;55.28;99453.84;5111053;27;43179;-82
2022/09/05 07:39:21;;;;;;;3.50;2.60;;;;;;;24.10;55.64;99451.69;5132708;27;39725;-80
2022/09/05 07:41:53;;;;;;;2.30;2.10;;;;;;;24.22;55.50;99449.50;5150068;27;42135;-82
2022/09/05 07:44:26;;;;;;;2.63;2.40;;;;;;;24.33;54.95;99457.31;5133652;27;43324;-85
2022/09/05 07:47:03;;;;;;;2.50;2.17;;;;;;;24.46;54.64;99462.22;5135251;27;41096;-88
2022/09/05 07:49:34;;;;;;;6.00;2.37;;;;;;;24.72;54.15;99453.91;5134763;27;38940;-85
2022/09/05 07:52:09;;;;;;;2.40;2.20;;;;;;;25.38;53.15;99465.25;5131832;27;42166;-86
2022/09/05 07:54:41;;;;;;;2.07;1.97;;;;;;;26.75;50.52;99472.72;5116608;27;41659;-80
2022/09/05 07:57:11;;;;;;;2.63;2.43;;;;;;;28.28;46.80;99501.00;5134397;27;41410;-80
2022/09/05 07:59:40;;;;;;;2.70;2.50;;;;;;;29.29;44.21;99489.72;5155365;27;39540;-83
2022/09/05 08:02:11;;;;;;;2.67;2.47;;;;;;;30.74;41.25;99524.97;5120468;27;40708;-84
2022/09/05 08:04:40;;;;;;;2.77;2.53;;;;;;;31.12;40.88;99514.25;5120207;27;41998;-88
2022/09/05 08:07:13;;;;;;;2.20;2.00;;;;;;;30.88;41.47;99513.81;5137289;27;42533;-81
2022/09/05 08:09:47;;;;;;;4.67;2.30;;;;;;;30.66;41.12;99515.09;5155193;27;40222;-80
2022/09/05 08:12:19;;;;;;;2.60;2.40;;;;;;;30.56;41.00;99511.88;5135326;27;41946;-78
2022/09/05 08:14:57;;;;;;;2.37;2.17;;;;;;;30.28;41.01;99512.88;5136394;27;42422;-75
2022/09/05 08:17:26;;;;;;;2.43;2.23;;;;;;;30.44;41.27;99486.19;5136958;27;40983;-76
2022/09/05 08:20:09;;;;;;;3.07;2.27;;;;;;;30.48;40.71;99506.59;5135803;27;40578;-76
2022/09/05 08:22:48;;;;;;;2.20;2.00;;;;;;;30.42;41.85;99496.47;5152496;27;41558;-77
2022/09/05 08:25:24;;;;;;;2.90;2.70;;;;;;;31.08;40.15;99492.75;5132896;27;43717;-76
2022/09/05 08:28:05;;;;;;;2.10;2.00;;;;;;;31.87;38.73;99501.88;5136619;27;43538;-78
2022/09/05 08:30:42;;;;;;;2.70;2.50;;;;;;;32.26;36.99;99509.91;5136869;27;40975;-83
2022/09/05 08:33:15;;;;;;;2.90;2.07;;;;;;;32.62;37.37;99505.66;5137082;27;41273;-78
2022/09/05 08:35:45;;;;;;;2.27;1.70;;;;;;;33.04;36.81;99510.38;5137534;27;41660;-87
2022/09/05 08:38:15;;;;;;;2.20;2.10;;;;;;;33.58;35.25;99510.72;5120524;27;41632;-85
2022/09/05 08:40:52;;;;;;;2.00;1.90;;;;;;;34.01;34.43;99502.38;5120401;27;39275;-83
2022/09/05 08:43:32;;;;;;;3.47;2.20;;;;;;;34.29;33.62;99521.91;5135733;27;41780;-87
2022/09/05 08:46:03;;;;;;;2.20;2.00;;;;;;;34.68;32.83;99519.63;5119893;27;41783;-86
2022/09/05 08:48:51;;;;;;;3.10;2.33;;;;;;;35.31;32.68;99528.16;5120519;27;42831;-81
2022/09/05 08:51:28;;;;;;;2.22;2.08;;;;;;;36.34;31.28;99530.13;5136407;27;39977;-79
2022/09/05 08:54:20;;;;;;;2.50;2.15;;;;;;;37.94;29.38;99534.94;5137687;27;42658;-85
2022/09/05 08:56:58;;;;;;;2.05;1.95;;;;;;;38.49;28.17;99533.91;5120066;27;42874;-85
2022/09/05 08:59:39;;;;;;;1.88;1.77;;;;;;;39.00;27.34;99517.81;5120033;27;40904;-87
2022/09/05 09:02:40;;;;;;;1.80;1.70;;;;;;;39.47;26.46;99531.75;5119840;27;38939;-85
2022/09/05 09:05:18;;;;;;;1.80;1.70;;;;;;;40.30;25.02;99540.25;5137383;27;42090;-84
2022/09/05 09:07:55;;;;;;;1.73;1.48;;;;;;;41.22;25.17;99550.34;5119242;27;44279;-86
2022/09/05 09:10:31;;;;;;;1.98;1.73;;;;;;;41.50;23.78;99541.41;5119261;27;41098;-79
2022/09/05 09:13:12;;;;;;;1.52;1.40;;;;;;;41.61;23.90;99536.69;5134214;27;39744;-80
2022/09/05 09:15:46;;;;;;;1.70;1.60;;;;;;;41.15;24.16;99528.41;5119294;27;41615;-86
2022/09/05 09:18:16;;;;;;;1.58;1.42;;;;;;;40.66;24.27;99514.19;5119051;27;41522;-79
2022/09/05 09:20:54;;;;;;;1.70;1.60;;;;;;;39.80;25.64;99502.81;5154440;27;42414;-84
2022/09/05 09:23:41;;;;;;;3.35;1.60;;;;;;;38.84;26.71;99508.50;5135911;27;39907;-78
2022/09/05 09:26:14;;;;;;;2.42;1.67;;;;;;;37.81;27.12;99482.78;5136229;27;41427;-85
2022/09/05 09:28:48;;;;;;;1.90;1.80;;;;;;;37.35;27.63;99495.94;5119176;27;44814;-79
2022/09/05 09:31:28;;;;;;;2.35;1.85;;;;;;;36.87;28.44;99476.41;5132955;27;43179;-81
2022/09/05 09:34:11;;;;;;;2.20;1.80;;;;;;;36.39;29.07;99465.91;5134611;27;40977;-91
2022/09/05 09:37:04;;;;;;;1.70;1.60;;;;;;;36.19;29.15;99477.38;5119343;27;40606;-82
2022/09/05 09:39:48;;;;;;;2.90;1.60;;;;;;;35.81;29.53;99455.97;5118446;27;44300;-86
2022/09/05 09:42:35;;;;;;;1.90;1.80;;;;;;;35.28;30.09;99452.34;5119477;27;41076;-83
2022/09/05 09:45:28;;;;;;;2.40;2.20;;;;;;;35.19;30.26;99473.03;5135942;27;39960;-73
2022/09/05 09:48:36;;;;;;;1.60;1.50;;;;;;;35.16;29.77;99469.91;5135663;27;40586;-75
2022/09/05 09:51:44;;;;;;;1.50;1.40;;;;;;;34.66;30.45;99458.50;5134484;27;42342;-75
2022/09/05 09:54:36;;;;;;;1.60;1.50;;;;;;;34.14;31.32;99456.28;5072602;28;41991;-75
2022/09/05 09:57:36;;;;;;;1.73;1.63;;;;;;;33.81;31.83;99447.69;5149273;27;40173;-78
2022/09/05 10:00:10;;;;;;;3.40;1.80;;;;;;;33.55;31.72;99451.56;5103450;27;42572;-76
2022/09/05 10:03:18;;;;;;;2.03;1.57;;;;;;;33.67;31.16;99455.22;5118202;27;42786;-77
2022/09/05 10:06:05;;;;;;;1.93;1.70;;;;;;;33.65;31.89;99440.88;5126999;27;42209;-76
2022/09/05 10:09:00;;;;;;;2.17;1.67;;;;;;;33.46;31.86;99436.50;5132287;27;38674;-74
2022/09/05 10:11:40;;;;;;;1.80;1.50;;;;;;;33.29;32.51;99428.00;5134341;27;42754;-75
2022/09/05 10:14:46;;;;;;;1.87;1.73;;;;;;;33.34;31.92;99424.59;5151612;27;42513;-74
2022/09/05 10:17:45;;;;;;;1.60;1.50;;;;;;;33.61;31.48;99428.69;5132362;27;41977;-79
2022/09/05 10:20:36;;;;;;;2.43;1.70;;;;;;;34.96;30.05;99430.91;5118828;27;41008;-74
2022/09/05 10:23:37;;;;;;;1.95;1.75;;;;;;;36.46;28.06;99455.56;5150373;27;42739;-75
2022/09/05 10:26:40;;;;;;;2.10;1.73;;;;;;;36.53;28.13;99443.25;5094907;27;43771;-76
2022/09/05 10:29:10;;;;;;;3.37;1.40;;;;;;;36.50;28.07;99449.28;5134074;27;42478;-75
2022/09/05 10:31:55;;;;;;;1.47;1.37;;;;;;;37.11;27.36;99441.97;5134515;27;40669;-76
2022/09/05 10:34:28;;;;;;;1.45;1.35;;;;;;;37.49;26.28;99440.31;5151382;27;42591;-76
2022/09/05 10:37:03;;;;;;;2.08;1.80;;;;;;;37.48;25.90;99444.16;5117322;27;42739;-76
2022/09/05 10:39:34;;;;;;;2.25;2.05;;;;;;;37.65;25.88;99434.75;5133640;27;43616;-77
2022/09/05 10:42:07;;;;;;;2.42;1.60;;;;;;;37.97;25.88;99431.22;5135149;27;40369;-78
2022/09/05 10:44:40;;;;;;;3.05;1.75;;;;;;;38.75;25.20;99438.94;5133983;27;41794;-76
2022/09/05 10:47:22;;;;;;;1.45;1.35;;;;;;;40.29;23.90;99435.84;5134243;27;41160;-75
2022/09/05 10:50:03;;;;;;;1.45;1.30;;;;;;;41.09;22.30;99450.81;5134153;27;43188;-77
2022/09/05 10:52:35;;;;;;;1.27;1.27;;;;;;;40.89;22.27;99446.97;5131331;27;39834;-78
2022/09/05 10:55:12;;;;;;;1.40;1.30;;;;;;;39.74;22.94;99440.09;5133955;27;41787;-77
2022/09/05 10:57:49;;;;;;;1.80;1.70;;;;;;;38.60;23.58;99429.66;5130934;27;42803;-75
2022/09/05 11:00:38;;;;;;;1.50;1.40;;;;;;;37.64;24.48;99423.94;5116384;27;43608;-75
2022/09/05 11:03:11;;;;;;;1.10;1.10;;;;;;;37.42;25.04;99409.28;5134172;27;39897;-75
2022/09/05 11:05:48;;;;;;;1.20;1.10;;;;;;;37.71;25.12;99410.78;5149200;27;41692;-75
2022/09/05 11:08:26;;;;;;;1.83;1.50;;;;;;;37.89;24.21;99417.88;5131601;27;42537;-75
2022/09/05 11:11:03;;;;;;;1.80;1.70;;;;;;;38.86;23.90;99416.84;5133317;27;42516;-75
2022/09/05 11:13:44;;;;;;;2.10;1.50;;;;;;;39.56;23.24;99405.38;5150497;27;40333;-76
2022/09/05 11:16:23;;;;;;;1.23;1.20;;;;;;;39.95;22.55;99414.09;5148646;27;42274;-73
2022/09/05 11:18:59;;;;;;;1.25;1.10;;;;;;;38.99;23.02;99414.47;5151043;27;43790;-72
2022/09/05 11:21:53;;;;;;;1.40;1.30;;;;;;;38.62;23.46;99410.88;5149615;27;42950;-79
2022/09/05 11:24:30;;;;;;;2.17;1.20;;;;;;;39.28;23.46;99414.94;5151629;27;39902;-78
2022/09/05 11:27:03;;;;;;;1.65;1.40;;;;;;;40.14;22.02;99409.72;5131413;27;42650;-79
2022/09/05 11:29:37;;;;;;;1.42;1.33;;;;;;;39.68;22.57;99421.78;5134181;27;41333;-78
2022/09/05 11:32:41;;;;;;;1.40;1.30;;;;;;;39.30;22.48;99401.66;5149785;27;43222;-80
2022/09/05 11:35:22;;;;;;;1.20;1.10;;;;;;;39.01;23.43;99386.50;5156359;27;40878;-80
2022/09/05 11:38:34;;;;;;;1.17;1.07;;;;;;;38.45;23.32;99405.47;5154214;27;41784;-81
2022/09/05 11:41:40;;;;;;;1.33;1.23;;;;;;;37.47;24.46;99381.69;5081092;27;42796;-77
2022/09/05 11:44:25;;;;;;;2.37;1.30;;;;;;;36.77;24.55;99398.94;5133969;27;42427;-77
2022/09/05 11:47:22;;;;;;;0.97;0.97;;;;;;;36.15;25.05;99397.03;5114526;27;40010;-78
2022/09/05 11:50:24;;;;;;;1.90;1.30;;;;;;;35.69;26.25;99384.31;5104700;27;43188;-80
2022/09/05 11:53:29;;;;;;;1.43;1.33;;;;;;;35.82;25.62;99386.78;5151667;27;42636;-77
2022/09/05 11:56:44;;;;;;;1.53;1.17;;;;;;;39.23;22.73;99395.50;5107170;27;42547;-83
2022/09/05 11:59:40;;;;;;;1.17;1.15;;;;;;;42.05;20.13;99402.38;5119709;27;39429;-78
2022/09/05 12:02:31;;;;;;;1.30;1.20;;;;;;;44.22;18.23;99421.53;5133431;27;41887;-78
2022/09/05 12:05:23;;;;;;;1.00;0.90;;;;;;;45.21;16.84;99434.41;5105306;27;41382;-79
2022/09/05 12:08:04;;;;;;;1.98;1.00;;;;;;;46.19;16.72;99415.22;5136295;27;42250;-80
2022/09/05 12:10:58;;;;;;;1.67;1.15;;;;;;;46.74;15.56;99430.69;5119363;27;39945;-78
2022/09/05 12:13:41;;;;;;;1.20;1.10;;;;;;;45.01;16.27;99419.63;5153463;27;41767;-80
2022/09/05 12:16:23;;;;;;;1.58;0.90;;;;;;;45.02;16.65;99403.69;5151854;27;42692;-82
2022/09/05 12:19:05;;;;;;;1.08;0.93;;;;;;;46.23;16.01;99405.88;5119478;27;43294;-82
2022/09/05 12:21:38;;;;;;;3.17;1.10;;;;;;;47.30;14.65;99405.91;5133666;27;40066;-79
2022/09/05 12:24:13;;;;;;;1.13;1.00;;;;;;;48.16;14.98;99403.31;5135791;27;42279;-79
2022/09/05 12:26:49;;;;;;;0.82;0.80;;;;;;;49.16;13.99;99406.63;5098700;27;41646;-79
2022/09/05 12:29:22;;;;;;;1.10;1.00;;;;;;;49.63;12.80;99403.72;5133708;27;43253;-77
2022/09/05 12:31:53;;;;;;;0.90;0.90;;;;;;;48.81;13.40;99402.28;5119357;27;40106;-80
2022/09/05 12:34:48;;;;;;;1.38;1.27;;;;;;;49.47;13.26;99388.56;5135290;27;42471;-79
2022/09/05 12:37:25;;;;;;;1.10;1.00;;;;;;;50.04;12.81;99391.69;5136416;27;42770;-80
2022/09/05 12:39:58;;;;;;;0.90;0.90;;;;;;;50.24;12.66;99384.41;5154233;27;42229;-79
2022/09/05 12:42:31;;;;;;;1.15;1.08;;;;;;;50.32;12.71;99380.69;5133591;27;39929;-78
2022/09/05 12:45:09;;;;;;;1.10;1.10;;;;;;;50.80;12.93;99374.38;5118588;27;43464;-79